createdAt,value
2023-05-07T00:00:33.012Z,101816.78
2023-05-07T00:03:02.817Z,101825.13
2023-05-07T00:05:32.561Z,101829.66
2023-05-07T00:08:01.451Z,101826.44
2023-05-07T00:10:32.691Z,101841.44
2023-05-07T00:13:04.530Z,101835.88
2023-05-07T00:15:34.621Z,101833.97
2023-05-07T00:18:04.435Z,101840.72
2023-05-07T00:20:35.596Z,101830.00
2023-05-07T00:23:04.826Z,101837.25
2023-05-07T00:25:36.670Z,101832.38
2023-05-07T00:28:06.176Z,101842.72
2023-05-07T00:30:34.968Z,101827.13
2023-05-07T00:33:04.024Z,101813.50
2023-05-07T00:35:32.845Z,101818.41
2023-05-07T00:38:02.056Z,101815.59
2023-05-07T00:40:30.958Z,101812.03
2023-05-07T00:43:03.821Z,101813.16
2023-05-07T00:45:33.625Z,101812.41
2023-05-07T00:48:05.065Z,101809.47
2023-05-07T00:50:35.152Z,101808.72
2023-05-07T00:53:05.620Z,101806.72
2023-05-07T00:55:36.895Z,101799.19
2023-05-07T00:58:10.773Z,101790.88
2023-05-07T01:00:40.762Z,101790.50
2023-05-07T01:03:10.095Z,101793.47
2023-05-07T01:05:41.376Z,101798.16
2023-05-07T01:08:12.166Z,101802.69
2023-05-07T01:10:48.104Z,101788.56
2023-05-07T01:13:19.287Z,101798.03
2023-05-07T01:15:48.996Z,101795.34
2023-05-07T01:18:18.306Z,101806.16
2023-05-07T01:20:47.681Z,101804.25
2023-05-07T01:23:19.655Z,101802.72
2023-05-07T01:25:55.750Z,101800.91
2023-05-07T01:28:25.017Z,101804.75
2023-05-07T01:31:02.507Z,101800.03
2023-05-07T01:33:38.802Z,101805.97
2023-05-07T01:36:10.327Z,101798.78
2023-05-07T01:38:43.601Z,101793.38
2023-05-07T01:41:12.252Z,101787.03
2023-05-07T01:43:42.416Z,101797.47
2023-05-07T01:46:13.467Z,101791.47
2023-05-07T01:48:47.224Z,101787.91
2023-05-07T01:51:17.740Z,101786.81
2023-05-07T01:53:52.069Z,101787.97
2023-05-07T01:56:22.540Z,101787.94
2023-05-07T01:58:53.054Z,101790.50
2023-05-07T02:01:27.025Z,101793.94
2023-05-07T02:03:57.148Z,101791.16
2023-05-07T02:06:27.870Z,101791.09
2023-05-07T02:09:00.657Z,101788.06
2023-05-07T02:11:29.443Z,101785.47
2023-05-07T02:14:00.186Z,101795.91
2023-05-07T02:16:31.680Z,101783.81
2023-05-07T02:19:02.607Z,101792.19
2023-05-07T02:21:33.649Z,101778.91
2023-05-07T02:24:04.634Z,101791.50
2023-05-07T02:26:35.391Z,101795.72
2023-05-07T02:29:05.658Z,101795.66
2023-05-07T02:31:35.386Z,101800.59
2023-05-07T02:34:06.893Z,101791.25
2023-05-07T02:36:49.301Z,101795.34
2023-05-07T02:39:22.915Z,101806.63
2023-05-07T02:41:53.703Z,101802.28
2023-05-07T02:44:25.701Z,101806.47
2023-05-07T02:46:57.864Z,101792.06
2023-05-07T02:49:28.823Z,101803.63
2023-05-07T02:51:57.682Z,101803.66
2023-05-07T02:54:27.777Z,101799.69
2023-05-07T02:56:57.792Z,101790.13
2023-05-07T02:59:29.023Z,101801.81
2023-05-07T03:01:57.866Z,101807.09
2023-05-07T03:04:28.379Z,101797.59
2023-05-07T03:06:57.782Z,101797.06
2023-05-07T03:09:28.037Z,101799.88
2023-05-07T03:11:57.347Z,101806.03
2023-05-07T03:14:27.082Z,101794.94
2023-05-07T03:16:58.201Z,101800.41
2023-05-07T03:19:27.706Z,101800.94
2023-05-07T03:21:59.660Z,101796.56
2023-05-07T03:24:30.962Z,101787.97
2023-05-07T03:27:01.619Z,101798.03
2023-05-07T03:29:32.189Z,101784.00
2023-05-07T03:32:04.462Z,101789.41
2023-05-07T03:34:34.582Z,101790.13
2023-05-07T03:37:03.086Z,101778.91
2023-05-07T03:39:38.239Z,101781.50
2023-05-07T03:42:07.560Z,101784.97
2023-05-07T03:44:38.681Z,101781.97
2023-05-07T03:47:07.665Z,101777.72
2023-05-07T03:49:42.620Z,101782.28
2023-05-07T03:52:12.229Z,101782.28
2023-05-07T03:54:51.363Z,101791.81
2023-05-07T03:57:22.641Z,101783.44
2023-05-07T03:59:53.213Z,101791.06
2023-05-07T04:02:28.186Z,101798.00
2023-05-07T04:05:00.272Z,101798.59
2023-05-07T04:07:29.923Z,101794.72
2023-05-07T04:10:00.423Z,101793.38
2023-05-07T04:12:31.502Z,101800.63
2023-05-07T04:15:02.316Z,101804.75
2023-05-07T04:17:36.159Z,101803.91
2023-05-07T04:20:08.556Z,101818.59
2023-05-07T04:22:39.288Z,101821.38
2023-05-07T04:25:13.912Z,101820.03
2023-05-07T04:27:46.432Z,101819.56
2023-05-07T04:30:20.235Z,101837.38
2023-05-07T04:32:51.611Z,101840.38
2023-05-07T04:35:25.118Z,101835.72
2023-05-07T04:37:56.430Z,101829.88
2023-05-07T04:40:32.032Z,101825.13
2023-05-07T04:43:05.189Z,101832.38
2023-05-07T04:45:36.968Z,101839.41
2023-05-07T04:48:08.721Z,101828.81
2023-05-07T04:50:38.320Z,101826.09
2023-05-07T04:53:07.879Z,101825.16
2023-05-07T04:55:42.234Z,101827.94
2023-05-07T04:58:13.574Z,101833.59
2023-05-07T05:00:43.693Z,101835.50
2023-05-07T05:03:14.738Z,101840.34
2023-05-07T05:05:47.416Z,101845.63
2023-05-07T05:08:21.150Z,101835.47
2023-05-07T05:10:55.103Z,101839.81
2023-05-07T05:13:28.516Z,101839.56
2023-05-07T05:16:03.895Z,101854.59
2023-05-07T05:18:35.301Z,101854.75
2023-05-07T05:21:08.390Z,101857.16
2023-05-07T05:23:41.087Z,101855.66
2023-05-07T05:26:19.318Z,101862.16
2023-05-07T05:28:49.780Z,101866.53
2023-05-07T05:31:25.649Z,101867.56
2023-05-07T05:33:55.764Z,101868.72
2023-05-07T05:36:41.073Z,101867.97
2023-05-07T05:39:16.218Z,101863.22
2023-05-07T05:41:54.295Z,101864.56
2023-05-07T05:44:24.227Z,101863.06
2023-05-07T05:46:58.868Z,101869.19
2023-05-07T05:49:31.944Z,101865.72
2023-05-07T05:52:14.275Z,101865.47
2023-05-07T05:54:51.809Z,101859.28
2023-05-07T05:57:28.615Z,101868.69
2023-05-07T06:00:02.917Z,101868.44
2023-05-07T06:02:32.662Z,101875.28
2023-05-07T06:05:12.248Z,101879.41
2023-05-07T06:07:42.194Z,101883.91
2023-05-07T06:10:12.313Z,101880.91
2023-05-07T06:12:46.914Z,101886.31
2023-05-07T06:15:19.417Z,101887.59
2023-05-07T06:17:58.400Z,101891.03
2023-05-07T06:20:30.532Z,101895.81
2023-05-07T06:23:04.179Z,101893.72
2023-05-07T06:25:36.283Z,101895.19
2023-05-07T06:28:14.253Z,101886.31
2023-05-07T06:30:44.906Z,101896.19
2023-05-07T06:33:18.866Z,101893.09
2023-05-07T06:35:48.384Z,101898.19
2023-05-07T06:38:18.977Z,101901.00
2023-05-07T06:40:51.790Z,101908.16
2023-05-07T06:43:23.160Z,101910.19
2023-05-07T06:45:57.804Z,101907.94
2023-05-07T06:48:27.027Z,101912.56
2023-05-07T06:50:59.850Z,101919.16
2023-05-07T06:53:29.703Z,101918.03
2023-05-07T06:56:01.274Z,101915.25
2023-05-07T06:58:35.692Z,101917.53
2023-05-07T07:01:05.781Z,101911.81
2023-05-07T07:03:36.260Z,101912.91
2023-05-07T07:06:06.007Z,101921.56
2023-05-07T07:08:39.191Z,101917.66
2023-05-07T07:11:14.872Z,101904.97
2023-05-07T07:13:47.688Z,101903.50
2023-05-07T07:16:22.963Z,101904.81
2023-05-07T07:18:52.647Z,101911.94
2023-05-07T07:21:25.864Z,101909.44
2023-05-07T07:23:56.509Z,101901.09
2023-05-07T07:26:27.453Z,101908.31
2023-05-07T07:28:59.886Z,101908.09
2023-05-07T07:31:32.927Z,101912.91
2023-05-07T07:34:03.897Z,101916.94
2023-05-07T07:36:42.810Z,101911.06
2023-05-07T07:39:18.589Z,101908.13
2023-05-07T07:41:50.384Z,101910.72
2023-05-07T07:44:25.994Z,101894.56
2023-05-07T07:46:57.346Z,101903.97
2023-05-07T07:49:26.962Z,101899.72
2023-05-07T07:52:00.557Z,101899.28
2023-05-07T07:54:31.482Z,101904.59
2023-05-07T07:57:02.733Z,101897.00
2023-05-07T07:59:35.332Z,101893.03
2023-05-07T08:02:05.351Z,101891.09
2023-05-07T08:04:36.583Z,101895.63
2023-05-07T08:07:06.417Z,101890.97
2023-05-07T08:09:41.799Z,101874.09
2023-05-07T08:12:15.025Z,101876.97
2023-05-07T08:14:47.790Z,101877.59
2023-05-07T08:17:18.967Z,101876.88
2023-05-07T08:19:50.909Z,101876.28
2023-05-07T08:22:27.045Z,101878.47
2023-05-07T08:24:57.839Z,101875.41
2023-05-07T08:27:27.808Z,101869.22
2023-05-07T08:30:03.545Z,101871.00
2023-05-07T08:32:36.469Z,101871.63
2023-05-07T08:35:09.952Z,101864.88
2023-05-07T08:37:40.862Z,101869.31
2023-05-07T08:40:14.508Z,101878.41
2023-05-07T08:42:47.139Z,101878.56
2023-05-07T08:45:24.363Z,101867.31
2023-05-07T08:48:14.328Z,101888.22
2023-05-07T08:50:44.034Z,101882.44
2023-05-07T08:53:16.653Z,101889.44
2023-05-07T08:55:46.243Z,101894.34
2023-05-07T08:58:18.446Z,101903.53
2023-05-07T09:00:55.542Z,101894.75
2023-05-07T09:03:24.406Z,101882.94
2023-05-07T09:05:54.170Z,101895.78
2023-05-07T09:08:28.787Z,101909.06
2023-05-07T09:11:02.134Z,101911.16
2023-05-07T09:13:31.473Z,101902.91
2023-05-07T09:16:15.453Z,101911.34
2023-05-07T09:18:44.820Z,101899.19
2023-05-07T09:21:16.996Z,101916.47
2023-05-07T09:23:49.257Z,101896.56
2023-05-07T09:26:20.519Z,101902.19
2023-05-07T09:28:49.030Z,101892.78
2023-05-07T09:31:22.854Z,101890.00
2023-05-07T09:33:52.202Z,101887.06
2023-05-07T09:36:21.546Z,101885.00
2023-05-07T09:38:53.208Z,101877.66
2023-05-07T09:41:26.284Z,101882.81
2023-05-07T09:43:58.132Z,101882.88
2023-05-07T09:46:35.061Z,101872.72
2023-05-07T09:51:48.020Z,101879.25
2023-05-07T09:54:16.852Z,101869.84
2023-05-07T09:56:48.118Z,101877.47
2023-05-07T09:59:19.757Z,101881.25
2023-05-07T10:02:01.563Z,101874.81
2023-05-07T10:04:34.826Z,101880.84
2023-05-07T10:07:07.269Z,101866.50
2023-05-07T10:09:39.506Z,101865.13
2023-05-07T10:12:10.331Z,101865.59
2023-05-07T10:14:41.228Z,101868.28
2023-05-07T10:17:14.416Z,101862.50
2023-05-07T10:19:46.483Z,101869.13
2023-05-07T10:22:17.910Z,101863.16
2023-05-07T10:24:51.576Z,101867.09
2023-05-07T10:27:21.558Z,101869.97
2023-05-07T10:30:02.234Z,101862.47
2023-05-07T10:32:45.930Z,101861.88
2023-05-07T10:35:22.699Z,101866.44
2023-05-07T10:37:54.764Z,101863.63
2023-05-07T10:40:29.220Z,101866.63
2023-05-07T10:43:01.716Z,101866.34
2023-05-07T10:45:32.066Z,101866.09
2023-05-07T10:48:28.897Z,101874.13
2023-05-07T10:51:24.796Z,101878.59
2023-05-07T10:54:21.567Z,101866.97
2023-05-07T10:56:52.074Z,101865.47
2023-05-07T10:59:46.804Z,101872.22
2023-05-07T11:02:16.858Z,101868.09
2023-05-07T11:04:48.361Z,101861.69
2023-05-07T11:07:32.073Z,101869.97
2023-05-07T11:10:05.541Z,101863.38
2023-05-07T11:12:58.574Z,101867.28
2023-05-07T11:15:44.451Z,101866.72
2023-05-07T11:18:17.580Z,101862.25
2023-05-07T11:21:01.237Z,101859.50
2023-05-07T11:24:03.167Z,101858.81
2023-05-07T11:26:34.124Z,101872.19
2023-05-07T11:29:03.423Z,101863.72
2023-05-07T11:31:34.354Z,101868.25
2023-05-07T11:34:11.885Z,101867.78
2023-05-07T11:36:49.505Z,101865.47
2023-05-07T11:39:30.197Z,101872.28
2023-05-07T11:41:59.297Z,101875.84
2023-05-07T11:44:43.845Z,101872.56
2023-05-07T11:47:14.980Z,101874.38
2023-05-07T11:49:45.662Z,101865.94
2023-05-07T11:52:15.999Z,101874.91
2023-05-07T11:54:52.078Z,101871.28
2023-05-07T11:57:22.958Z,101869.28
2023-05-07T11:59:59.503Z,101865.53
2023-05-07T12:02:30.574Z,101873.59
2023-05-07T12:05:03.640Z,101883.06
2023-05-07T12:07:37.718Z,101872.34
2023-05-07T12:10:12.802Z,101877.34
2023-05-07T12:12:43.154Z,101874.31
2023-05-07T12:15:14.761Z,101873.03
2023-05-07T12:17:46.023Z,101871.50
2023-05-07T12:20:29.787Z,101874.19
2023-05-07T12:23:01.645Z,101870.91
2023-05-07T12:25:34.796Z,101869.88
2023-05-07T12:28:09.325Z,101871.13
2023-05-07T12:30:40.894Z,101861.81
2023-05-07T12:33:10.843Z,101872.91
2023-05-07T12:35:42.169Z,101870.25
2023-05-07T12:38:20.074Z,101875.03
2023-05-07T12:40:52.359Z,101864.84
2023-05-07T12:43:21.494Z,101865.44
2023-05-07T12:45:56.857Z,101865.88
2023-05-07T12:48:31.325Z,101863.41
2023-05-07T12:51:02.600Z,101866.66
2023-05-07T12:53:34.328Z,101865.41
2023-05-07T12:56:07.985Z,101869.56
2023-05-07T12:58:41.615Z,101861.88
2023-05-07T13:01:16.833Z,101866.84
2023-05-07T13:03:52.448Z,101878.06
2023-05-07T13:06:23.036Z,101874.53
2023-05-07T13:08:56.644Z,101877.00
2023-05-07T13:11:29.130Z,101874.03
2023-05-07T13:14:00.373Z,101877.81
2023-05-07T13:16:30.904Z,101879.19
2023-05-07T13:18:59.368Z,101885.28
2023-05-07T13:21:34.077Z,101878.78
2023-05-07T13:24:06.092Z,101894.69
2023-05-07T13:26:35.988Z,101879.00
2023-05-07T13:29:05.480Z,101878.50
2023-05-07T13:31:37.436Z,101885.53
2023-05-07T13:34:06.511Z,101876.56
2023-05-07T13:36:42.102Z,101883.69
2023-05-07T13:39:15.738Z,101880.28
2023-05-07T13:41:46.329Z,101883.69
2023-05-07T13:44:15.796Z,101883.00
2023-05-07T13:46:46.262Z,101880.72
2023-05-07T13:49:15.866Z,101881.78
2023-05-07T13:51:44.206Z,101868.56
2023-05-07T13:54:14.013Z,101871.09
2023-05-07T13:56:42.705Z,101873.41
2023-05-07T13:59:15.571Z,101865.47
2023-05-07T14:01:45.248Z,101868.44
2023-05-07T14:04:14.046Z,101875.28
2023-05-07T14:06:43.413Z,101871.41
2023-05-07T14:09:16.679Z,101872.66
2023-05-07T14:11:52.172Z,101881.03
2023-05-07T14:14:22.863Z,101882.47
2023-05-07T14:16:53.653Z,101894.47
2023-05-07T14:19:24.665Z,101890.69
2023-05-07T14:21:56.539Z,101887.03
2023-05-07T14:24:38.032Z,101884.22
2023-05-07T14:27:11.167Z,101888.31
2023-05-07T14:29:40.147Z,101891.44
2023-05-07T14:32:10.576Z,101891.13
2023-05-07T14:34:39.820Z,101897.78
2023-05-07T14:37:09.487Z,101901.31
2023-05-07T14:39:45.053Z,101903.88
2023-05-07T14:42:22.123Z,101899.22
2023-05-07T14:44:51.376Z,101893.06
2023-05-07T14:47:21.836Z,101887.44
2023-05-07T14:49:51.476Z,101892.09
2023-05-07T14:52:23.244Z,101904.09
2023-05-07T14:54:55.902Z,101912.19
2023-05-07T14:57:26.755Z,101919.19
2023-05-07T14:59:55.979Z,101917.22
2023-05-07T15:02:25.143Z,101913.19
2023-05-07T15:04:55.946Z,101918.25
2023-05-07T15:07:25.663Z,101920.97
2023-05-07T15:09:58.088Z,101930.53
2023-05-07T15:12:28.903Z,101932.28
2023-05-07T15:14:59.709Z,101938.00
2023-05-07T15:17:31.501Z,101948.59
2023-05-07T15:20:02.926Z,101951.09
2023-05-07T15:22:32.398Z,101959.50
2023-05-07T15:25:06.830Z,101959.44
2023-05-07T15:27:35.811Z,101968.22
2023-05-07T15:30:06.754Z,101967.31
2023-05-07T15:32:38.602Z,101974.06
2023-05-07T15:35:14.071Z,101989.94
2023-05-07T15:37:45.393Z,101978.00
2023-05-07T15:40:18.174Z,101990.00
2023-05-07T15:42:52.700Z,101990.75
2023-05-07T15:45:26.138Z,101999.88
2023-05-07T15:47:56.496Z,101994.59
2023-05-07T15:50:26.589Z,101999.03
2023-05-07T15:52:55.557Z,101993.25
2023-05-07T15:55:26.460Z,102001.38
2023-05-07T15:57:58.379Z,102013.03
2023-05-07T16:00:32.024Z,102019.03
2023-05-07T16:03:01.778Z,102022.63
2023-05-07T16:05:31.978Z,102027.94
2023-05-07T16:08:01.145Z,102035.16
2023-05-07T16:10:32.758Z,102051.59
2023-05-07T16:13:05.307Z,102049.53
2023-05-07T16:15:34.270Z,102049.31
2023-05-07T16:18:03.479Z,102062.41
2023-05-07T16:20:32.925Z,102057.47
2023-05-07T16:23:03.023Z,102048.03
2023-05-07T16:25:33.590Z,102053.22
2023-05-07T16:28:11.073Z,102049.38
2023-05-07T16:30:39.740Z,102056.78
2023-05-07T16:33:08.682Z,102056.78
2023-05-07T16:35:44.283Z,102062.47
2023-05-07T16:41:08.695Z,102066.44
2023-05-07T16:43:41.229Z,102074.31
2023-05-07T16:46:13.204Z,102062.03
2023-05-07T16:48:43.596Z,102074.84
2023-05-07T16:51:16.082Z,102068.97
2023-05-07T16:53:46.630Z,102064.53
2023-05-07T16:56:19.198Z,102060.59
2023-05-07T16:58:48.625Z,102068.88
2023-05-07T17:01:19.109Z,102073.13
2023-05-07T17:03:53.701Z,102075.88
2023-05-07T17:06:22.957Z,102067.16
2023-05-07T17:08:57.100Z,102055.19
2023-05-07T17:11:44.580Z,102054.97
2023-05-07T17:14:20.219Z,102055.22
2023-05-07T17:16:49.856Z,102045.19
2023-05-07T17:19:20.968Z,102050.03
2023-05-07T17:21:50.427Z,102053.22
2023-05-07T17:24:22.064Z,102059.31
2023-05-07T17:26:53.333Z,102045.31
2023-05-07T17:29:23.828Z,102049.47
2023-05-07T17:31:58.477Z,102058.56
2023-05-07T17:34:36.166Z,102063.34
2023-05-07T17:37:07.110Z,102064.47
2023-05-07T17:39:37.382Z,102070.94
2023-05-07T17:42:08.822Z,102060.22
2023-05-07T17:44:40.981Z,102060.81
2023-05-07T17:47:13.580Z,102062.44
2023-05-07T17:49:43.196Z,102066.69
2023-05-07T17:52:14.713Z,102059.00
2023-05-07T17:54:44.022Z,102065.34
2023-05-07T17:57:15.214Z,102058.41
2023-05-07T17:59:43.848Z,102054.47
2023-05-07T18:02:48.455Z,102058.16
2023-05-07T18:05:37.155Z,102062.59
2023-05-07T18:08:19.129Z,102073.00
2023-05-07T18:11:03.832Z,102056.91
2023-05-07T18:13:50.134Z,102066.44
2023-05-07T18:16:30.344Z,102073.41
2023-05-07T18:19:17.670Z,102078.78
2023-05-07T18:22:15.056Z,102094.41
2023-05-07T18:24:54.244Z,102090.03
2023-05-07T18:27:30.598Z,102104.06
2023-05-07T18:30:18.925Z,102112.50
2023-05-07T18:32:54.750Z,102116.63
2023-05-07T18:35:31.640Z,102111.16
2023-05-07T18:38:15.387Z,102119.41
2023-05-07T18:40:55.517Z,102113.91
2023-05-07T18:43:43.247Z,102119.19
2023-05-07T18:46:21.665Z,102138.53
2023-05-07T18:49:05.623Z,102130.25
2023-05-07T18:51:57.916Z,102133.50
2023-05-07T18:54:46.011Z,102139.75
2023-05-07T18:57:18.133Z,102124.84
2023-05-07T18:59:49.487Z,102126.78
2023-05-07T19:02:27.827Z,102131.81
2023-05-07T19:05:01.518Z,102129.38
2023-05-07T19:07:35.097Z,102131.81
2023-05-07T19:10:06.561Z,102126.41
2023-05-07T19:12:52.248Z,102146.25
2023-05-07T19:15:25.350Z,102136.16
2023-05-07T19:21:06.833Z,102137.44
2023-05-07T19:23:42.137Z,102121.34
2023-05-07T19:26:12.042Z,102122.75
2023-05-07T19:28:45.888Z,102127.44
2023-05-07T19:31:21.834Z,102126.16
2023-05-07T19:33:53.045Z,102129.94
2023-05-07T19:36:26.879Z,102131.59
2023-05-07T19:38:57.444Z,102127.09
2023-05-07T19:41:26.279Z,102122.63
2023-05-07T19:43:55.932Z,102126.78
2023-05-07T19:46:25.158Z,102132.97
2023-05-07T19:48:58.824Z,102130.19
2023-05-07T19:51:33.962Z,102141.13
2023-05-07T19:54:03.924Z,102144.41
2023-05-07T19:56:33.369Z,102148.13
2023-05-07T19:59:04.520Z,102137.25
2023-05-07T20:01:36.517Z,102136.34
2023-05-07T20:04:12.009Z,102141.50
2023-05-07T20:06:46.226Z,102142.69
2023-05-07T20:09:18.274Z,102147.44
2023-05-07T20:11:47.692Z,102159.50
2023-05-07T20:14:18.052Z,102167.63
2023-05-07T20:16:48.226Z,102173.25
2023-05-07T20:19:23.763Z,102175.44
2023-05-07T20:21:54.204Z,102186.38
2023-05-07T20:24:24.863Z,102187.16
2023-05-07T20:27:00.259Z,102194.72
2023-05-07T20:29:51.086Z,102202.72
2023-05-07T20:32:23.841Z,102196.72
2023-05-07T20:35:00.044Z,102204.63
2023-05-07T20:37:29.784Z,102194.53
2023-05-07T20:40:01.770Z,102191.34
2023-05-07T20:42:36.617Z,102189.47
2023-05-07T20:45:07.094Z,102205.38
2023-05-07T20:47:38.863Z,102203.09
2023-05-07T20:50:13.919Z,102209.09
2023-05-07T20:52:44.366Z,102215.88
2023-05-07T20:55:14.747Z,102201.38
2023-05-07T20:57:44.281Z,102218.22
2023-05-07T21:00:18.330Z,102211.16
2023-05-07T21:02:50.830Z,102210.97
2023-05-07T21:05:21.855Z,102193.84
2023-05-07T21:07:51.007Z,102203.22
2023-05-07T21:10:19.805Z,102206.81
2023-05-07T21:12:52.756Z,102208.34
2023-05-07T21:15:23.531Z,102209.56
2023-05-07T21:17:58.904Z,102220.38
2023-05-07T21:20:30.927Z,102213.78
2023-05-07T21:23:05.068Z,102226.56
2023-05-07T21:25:36.481Z,102228.31
2023-05-07T21:28:08.666Z,102226.75
2023-05-07T21:30:39.320Z,102239.88
2023-05-07T21:33:11.961Z,102241.63
2023-05-07T21:35:43.742Z,102248.66
2023-05-07T21:38:15.906Z,102245.00
2023-05-07T21:40:48.294Z,102253.09
2023-05-07T21:43:19.922Z,102250.09
2023-05-07T21:45:53.500Z,102241.91
2023-05-07T21:48:24.264Z,102243.34
2023-05-07T21:51:05.869Z,102235.81
2023-05-07T21:53:36.849Z,102233.59
2023-05-07T21:56:10.246Z,102233.41
2023-05-07T21:58:42.854Z,102231.22
2023-05-07T22:01:15.881Z,102231.19
2023-05-07T22:03:47.086Z,102239.91
2023-05-07T22:06:21.954Z,102235.28
2023-05-07T22:09:01.033Z,102238.25
2023-05-07T22:11:31.104Z,102243.00
2023-05-07T22:14:01.286Z,102248.91
2023-05-07T22:16:35.558Z,102246.63
2023-05-07T22:19:08.584Z,102244.13
2023-05-07T22:21:49.107Z,102243.38
2023-05-07T22:24:31.927Z,102238.72
2023-05-07T22:27:01.162Z,102236.00
2023-05-07T22:29:31.209Z,102245.09
2023-05-07T22:32:02.478Z,102242.69
2023-05-07T22:34:41.270Z,102246.63
2023-05-07T22:37:13.493Z,102260.59
2023-05-07T22:39:44.527Z,102250.44
2023-05-07T22:42:13.412Z,102252.19
2023-05-07T22:44:44.407Z,102254.59
2023-05-07T22:47:16.738Z,102248.19
2023-05-07T22:49:46.975Z,102254.78
2023-05-07T22:52:18.932Z,102247.06
2023-05-07T22:54:54.155Z,102250.34
2023-05-07T22:57:23.903Z,102255.94
2023-05-07T22:59:56.765Z,102252.34
2023-05-07T23:02:38.706Z,102253.63
2023-05-07T23:05:12.478Z,102253.84
2023-05-07T23:07:46.875Z,102243.44
2023-05-07T23:10:17.192Z,102235.63
2023-05-07T23:12:50.536Z,102226.75
2023-05-07T23:15:22.127Z,102231.78
2023-05-07T23:17:54.228Z,102239.88
2023-05-07T23:20:26.515Z,102232.72
2023-05-07T23:23:00.197Z,102243.25
2023-05-07T23:25:35.211Z,102239.00
2023-05-07T23:28:51.264Z,102231.44
2023-05-07T23:31:24.633Z,102244.88
2023-05-07T23:33:57.687Z,102237.81
2023-05-07T23:36:29.244Z,102238.19
2023-05-07T23:39:00.738Z,102237.13
2023-05-07T23:41:31.620Z,102228.41
2023-05-07T23:44:01.026Z,102229.28
2023-05-07T23:46:32.400Z,102223.19
2023-05-07T23:49:02.787Z,102236.72
2023-05-07T23:51:34.474Z,102237.50
2023-05-07T23:54:06.001Z,102231.59
2023-05-07T23:56:38.391Z,102229.75
2023-05-07T23:59:09.404Z,102215.63
